Time;durP1;ratioP1;P1;durP2;ratioP2;P2;SDS_P1;SDS_P2;PMS_P1;PMS_P2;Temp;Humidity;BMP_temperature;BMP_pressure;BME280_temperature;BME280_humidity;BME280_pressure;Samples;Min_cycle;Max_cycle;Signal;HPM_P1;HPM_P2
2023/01/01 00:01:23;;;;;;;19.27;8.68;;;11.80;99.90;;;;;;5031509;28;20038;-66
2023/01/01 00:03:50;;;;;;;17.33;8.80;;;11.90;99.90;;;;;;5016825;28;20047;-67
2023/01/01 00:06:16;;;;;;;20.38;10.23;;;11.80;99.90;;;;;;5032177;28;20437;-65
2023/01/01 00:08:42;;;;;;;27.05;14.13;;;11.80;99.90;;;;;;5027984;28;20084;-69
2023/01/01 00:11:09;;;;;;;31.15;17.55;;;11.80;99.90;;;;;;5023476;28;20596;-69
2023/01/01 00:13:36;;;;;;;42.58;20.98;;;11.80;99.90;;;;;;5028338;28;20822;-67
2023/01/01 00:16:13;;;;;;;40.53;22.30;;;11.70;99.90;;;;;;5032472;28;20077;-69
2023/01/01 00:18:39;;;;;;;40.85;22.65;;;11.80;99.90;;;;;;5023363;28;20049;-68
2023/01/01 00:21:11;;;;;;;49.25;26.92;;;11.70;99.90;;;;;;5017516;28;20037;-67
2023/01/01 00:23:37;;;;;;;44.60;25.67;;;11.60;99.90;;;;;;5027688;28;20120;-69
2023/01/01 00:26:10;;;;;;;52.85;27.85;;;11.50;99.90;;;;;;5028225;28;20116;-67
2023/01/01 00:28:36;;;;;;;53.38;30.73;;;11.50;99.90;;;;;;5023236;28;20037;-67
2023/01/01 00:31:15;;;;;;;60.28;32.45;;;11.40;99.90;;;;;;5019682;28;20044;-67
2023/01/01 00:33:41;;;;;;;63.40;33.42;;;11.40;99.90;;;;;;5024810;28;20041;-66
2023/01/01 00:36:08;;;;;;;54.83;33.40;;;11.40;99.90;;;;;;5027639;28;20053;-67
2023/01/01 00:38:34;;;;;;;59.20;32.92;;;11.30;99.90;;;;;;5026509;28;20049;-65
2023/01/01 00:41:00;;;;;;;57.42;32.33;;;11.20;99.90;;;;;;5025717;28;20049;-67
2023/01/01 00:43:25;;;;;;;66.05;36.53;;;11.30;99.90;;;;;;5025781;28;20030;-67
2023/01/01 00:45:54;;;;;;;52.72;29.70;;;11.20;99.90;;;;;;5025747;28;20099;-66
2023/01/01 00:48:20;;;;;;;45.03;27.55;;;11.30;99.90;;;;;;5028731;28;20083;-68
2023/01/01 00:50:46;;;;;;;46.30;24.85;;;11.30;99.90;;;;;;5027804;28;21141;-66
2023/01/01 00:53:12;;;;;;;40.53;24.63;;;11.30;99.90;;;;;;5025550;28;20053;-67
2023/01/01 00:55:38;;;;;;;40.08;23.13;;;11.20;99.90;;;;;;5017540;28;20111;-70
2023/01/01 00:58:04;;;;;;;37.78;21.77;;;11.40;99.90;;;;;;5033877;28;20041;-67
2023/01/01 01:00:30;;;;;;;34.17;19.90;;;11.40;99.90;;;;;;5021075;28;20033;-67
2023/01/01 01:02:55;;;;;;;33.10;20.05;;;11.60;99.90;;;;;;5020190;28;20116;-67
2023/01/01 01:05:21;;;;;;;38.58;21.00;;;11.50;99.90;;;;;;5025605;28;20673;-65
2023/01/01 01:07:46;;;;;;;33.35;18.60;;;11.50;99.90;;;;;;5030008;28;20423;-67
2023/01/01 01:10:12;;;;;;;30.90;16.85;;;11.50;99.90;;;;;;5026896;28;20393;-66
2023/01/01 01:12:38;;;;;;;33.30;17.27;;;11.60;99.90;;;;;;5026792;28;20541;-66
2023/01/01 01:15:04;;;;;;;30.73;17.73;;;11.70;99.90;;;;;;5013985;28;20033;-67
2023/01/01 01:17:30;;;;;;;33.92;17.40;;;11.50;99.90;;;;;;5021946;28;20107;-69
2023/01/01 01:19:56;;;;;;;29.55;17.42;;;11.50;99.90;;;;;;5017236;28;20033;-66
2023/01/01 01:22:21;;;;;;;29.63;16.25;;;11.60;99.90;;;;;;5025047;28;20552;-66
2023/01/01 01:24:47;;;;;;;31.80;17.40;;;11.70;99.90;;;;;;5027301;28;20155;-66
2023/01/01 01:27:12;;;;;;;32.97;17.05;;;11.60;99.90;;;;;;5026065;28;20474;-66
2023/01/01 01:29:38;;;;;;;34.22;19.00;;;11.60;99.90;;;;;;5021665;28;20052;-66
2023/01/01 01:32:04;;;;;;;32.08;18.83;;;11.50;99.90;;;;;;5024238;28;20040;-68
2023/01/01 01:34:29;;;;;;;29.13;16.17;;;11.50;99.90;;;;;;5021874;28;20037;-68
2023/01/01 01:36:55;;;;;;;33.42;17.35;;;11.50;99.90;;;;;;5024521;28;22674;-67
2023/01/01 01:39:21;;;;;;;34.15;18.58;;;11.50;99.90;;;;;;5023862;28;20478;-66
2023/01/01 01:41:46;;;;;;;36.92;18.00;;;11.40;99.90;;;;;;5022519;28;20037;-67
2023/01/01 01:44:50;;;;;;;35.75;16.63;;;11.50;99.90;;;;;;5023451;28;20893;-67
2023/01/01 01:47:40;;;;;;;36.30;20.00;;;11.50;99.90;;;;;;5025006;28;20048;-65
2023/01/01 01:50:14;;;;;;;32.67;17.40;;;11.40;99.90;;;;;;5021962;28;20049;-67
2023/01/01 01:52:56;;;;;;;33.97;18.48;;;11.40;99.90;;;;;;5027128;28;20043;-66
2023/01/01 01:55:22;;;;;;;38.60;19.63;;;11.40;99.90;;;;;;5007159;28;20278;-67
2023/01/01 01:57:47;;;;;;;28.92;17.15;;;11.40;99.90;;;;;;5026266;28;20053;-67
2023/01/01 02:00:14;;;;;;;34.20;15.73;;;11.40;99.90;;;;;;5021200;28;20046;-67
2023/01/01 02:02:49;;;;;;;31.65;18.30;;;11.30;99.90;;;;;;5023313;28;20029;-66
2023/01/01 02:05:17;;;;;;;35.50;18.95;;;11.30;99.90;;;;;;5015209;28;20034;-68
2023/01/01 02:07:44;;;;;;;36.17;16.88;;;11.40;99.90;;;;;;5021229;28;20045;-68
2023/01/01 02:10:09;;;;;;;35.00;20.45;;;11.30;99.90;;;;;;5030634;28;20044;-67
2023/01/01 02:12:35;;;;;;;30.83;18.42;;;11.20;99.90;;;;;;5021720;28;20489;-67
2023/01/01 02:15:01;;;;;;;29.55;15.65;;;11.40;99.90;;;;;;5021253;28;20056;-67
2023/01/01 02:17:34;;;;;;;33.20;17.75;;;11.40;99.90;;;;;;5023856;28;20599;-69
2023/01/01 02:19:59;;;;;;;32.40;17.27;;;11.40;99.90;;;;;;5020969;28;20040;-67
2023/01/01 02:23:13;;;;;;;32.50;18.65;;;11.40;99.90;;;;;;5025004;28;20466;-66
2023/01/01 02:26:03;;;;;;;34.22;17.90;;;11.40;99.90;;;;;;4998836;28;20723;-68
2023/01/01 02:28:42;;;;;;;31.50;16.08;;;11.40;99.90;;;;;;5023514;28;20049;-68
2023/01/01 02:31:11;;;;;;;27.95;14.60;;;11.50;99.90;;;;;;5022933;28;20127;-66
2023/01/01 02:33:37;;;;;;;28.02;15.27;;;11.60;99.90;;;;;;5019157;28;20065;-66
2023/01/01 02:36:03;;;;;;;32.00;14.85;;;11.50;99.90;;;;;;5018814;28;20045;-68
2023/01/01 02:38:40;;;;;;;27.20;15.02;;;11.50;99.90;;;;;;5019915;28;20077;-67
2023/01/01 02:41:23;;;;;;;28.17;15.02;;;11.50;99.90;;;;;;5024272;28;20068;-67
2023/01/01 02:43:50;;;;;;;27.08;13.40;;;11.60;99.90;;;;;;5021314;28;20489;-65
2023/01/01 02:46:16;;;;;;;25.30;12.57;;;11.60;99.90;;;;;;5024233;28;20473;-66
2023/01/01 02:48:50;;;;;;;28.33;14.00;;;11.60;99.90;;;;;;5023123;28;20128;-65
2023/01/01 02:51:34;;;;;;;24.42;12.55;;;11.50;99.90;;;;;;5023930;28;20060;-65
2023/01/01 02:54:38;;;;;;;26.80;11.60;;;11.70;99.90;;;;;;5023422;28;20098;-69
2023/01/01 02:57:25;;;;;;;24.63;11.68;;;11.70;99.90;;;;;;5018507;28;20046;-67
2023/01/01 03:00:20;;;;;;;28.65;11.48;;;11.80;99.90;;;;;;5019962;28;20041;-64
2023/01/01 03:03:10;;;;;;;24.02;11.55;;;11.80;99.90;;;;;;5020362;28;20065;-65
2023/01/01 03:08:55;;;;;;;21.67;10.00;;;12.00;99.90;;;;;;5017024;28;20049;-67
2023/01/01 03:11:24;;;;;;;18.65;10.18;;;12.00;99.90;;;;;;5022415;28;20049;-66
2023/01/01 03:14:05;;;;;;;22.23;8.60;;;12.10;99.90;;;;;;5019122;28;20043;-67
2023/01/01 03:16:47;;;;;;;19.77;8.55;;;12.20;99.90;;;;;;5023774;28;20082;-64
2023/01/01 03:19:40;;;;;;;17.05;7.78;;;12.20;99.90;;;;;;5026504;28;20041;-66
2023/01/01 03:22:09;;;;;;;19.08;8.23;;;12.20;99.90;;;;;;5022047;28;20144;-67
2023/01/01 03:24:47;;;;;;;15.52;7.10;;;12.30;99.90;;;;;;5025237;28;20030;-66
2023/01/01 03:27:42;;;;;;;16.05;6.47;;;12.70;99.90;;;;;;5031007;28;20058;-65
2023/01/01 03:30:10;;;;;;;15.60;6.63;;;12.60;99.90;;;;;;5015951;28;20461;-67
2023/01/01 03:33:00;;;;;;;13.10;5.93;;;12.70;99.90;;;;;;5027217;28;20787;-67
2023/01/01 03:35:41;;;;;;;11.30;5.80;;;12.90;99.90;;;;;;5023392;28;20474;-65
2023/01/01 03:38:14;;;;;;;12.50;4.72;;;12.90;99.90;;;;;;5021326;28;20055;-67
2023/01/01 03:40:41;;;;;;;11.63;4.80;;;13.10;99.90;;;;;;5020987;28;20037;-65
2023/01/01 03:43:29;;;;;;;12.90;4.55;;;13.10;99.90;;;;;;5026037;28;20041;-66
2023/01/01 03:45:58;;;;;;;13.38;4.10;;;13.10;99.90;;;;;;5030840;28;20052;-68
2023/01/01 03:48:23;;;;;;;9.27;3.75;;;13.30;99.90;;;;;;5028912;28;20092;-65
2023/01/01 03:51:16;;;;;;;13.85;4.38;;;13.20;99.90;;;;;;5026270;28;20967;-69
2023/01/01 03:53:42;;;;;;;10.85;3.67;;;13.40;99.90;;;;;;5025823;28;20049;-66
2023/01/01 03:56:18;;;;;;;12.07;3.20;;;13.50;99.90;;;;;;5030825;28;20077;-65
2023/01/01 03:59:01;;;;;;;8.48;3.55;;;13.60;99.90;;;;;;5022407;28;20041;-66
2023/01/01 04:01:36;;;;;;;11.30;3.05;;;13.50;99.90;;;;;;5023529;28;20091;-65
2023/01/01 04:04:05;;;;;;;9.23;3.58;;;13.60;99.90;;;;;;5028032;28;20040;-64
2023/01/01 04:06:34;;;;;;;7.07;2.90;;;13.60;99.90;;;;;;5028744;28;20036;-65
2023/01/01 04:09:01;;;;;;;12.55;3.25;;;13.70;99.90;;;;;;5020624;28;20042;-66
2023/01/01 04:14:28;;;;;;;10.00;3.17;;;13.60;99.90;;;;;;5018674;28;20045;-66
2023/01/01 04:16:55;;;;;;;6.57;2.30;;;13.60;99.90;;;;;;5013114;28;20049;-67
2023/01/01 04:19:21;;;;;;;10.48;2.97;;;13.80;99.90;;;;;;5024216;28;20055;-67
2023/01/01 04:21:47;;;;;;;13.93;3.05;;;13.90;99.90;;;;;;5027680;28;20037;-63
2023/01/01 04:24:13;;;;;;;8.55;2.80;;;13.80;99.90;;;;;;5020882;28;20048;-64
2023/01/01 04:26:39;;;;;;;8.82;2.92;;;13.90;99.90;;;;;;5037369;28;20034;-65
2023/01/01 04:29:05;;;;;;;9.98;3.05;;;13.90;99.90;;;;;;5021205;28;20041;-66
2023/01/01 04:31:30;;;;;;;6.45;2.45;;;13.80;99.90;;;;;;5023287;28;20532;-66
2023/01/01 04:33:56;;;;;;;6.45;2.50;;;13.90;99.90;;;;;;5023548;28;20041;-66
2023/01/01 04:36:21;;;;;;;7.57;2.88;;;13.90;99.90;;;;;;5021166;28;20528;-64
2023/01/01 04:38:47;;;;;;;8.10;2.83;;;13.80;99.90;;;;;;5023491;28;20045;-64
2023/01/01 04:41:12;;;;;;;11.15;2.40;;;13.80;99.90;;;;;;5020314;28;20049;-64
2023/01/01 04:43:38;;;;;;;10.07;2.63;;;13.70;99.90;;;;;;5019489;28;20064;-66
2023/01/01 04:46:03;;;;;;;7.07;2.53;;;13.30;99.90;;;;;;5026435;28;20432;-65
2023/01/01 04:48:30;;;;;;;10.30;2.47;;;12.90;99.90;;;;;;5019731;28;20037;-64
2023/01/01 04:51:01;;;;;;;11.07;2.70;;;12.60;99.90;;;;;;5024727;28;20040;-64
2023/01/01 04:53:34;;;;;;;5.75;2.60;;;12.50;99.90;;;;;;5023925;28;20865;-64
2023/01/01 04:56:08;;;;;;;9.13;2.67;;;12.60;99.90;;;;;;5026945;28;20544;-65
2023/01/01 04:58:37;;;;;;;9.48;2.40;;;12.90;99.90;;;;;;5015907;28;20051;-64
2023/01/01 05:01:03;;;;;;;11.32;2.53;;;12.90;99.90;;;;;;5020463;28;20120;-65
2023/01/01 05:03:29;;;;;;;9.23;2.72;;;12.80;99.90;;;;;;5027314;28;20070;-66
2023/01/01 05:06:08;;;;;;;6.43;2.42;;;12.80;99.90;;;;;;5031369;28;20076;-64
2023/01/01 05:08:36;;;;;;;8.85;2.33;;;12.80;99.90;;;;;;5023654;28;20417;-64
2023/01/01 05:11:04;;;;;;;7.38;2.75;;;13.00;99.90;;;;;;5027118;28;20087;-66
2023/01/01 05:13:30;;;;;;;10.57;3.00;;;12.90;99.90;;;;;;5021071;28;20045;-64
2023/01/01 05:15:56;;;;;;;7.47;2.55;;;13.00;99.90;;;;;;5031098;28;20508;-64
2023/01/01 05:18:21;;;;;;;9.35;2.60;;;13.00;99.90;;;;;;5028724;28;20092;-65
2023/01/01 05:20:47;;;;;;;4.30;1.98;;;13.10;99.90;;;;;;5020225;28;20037;-64
2023/01/01 05:23:15;;;;;;;6.70;2.10;;;13.10;99.90;;;;;;5010466;28;20045;-67
2023/01/01 05:25:41;;;;;;;7.55;1.83;;;13.20;99.90;;;;;;5021491;28;20056;-64
2023/01/01 05:28:07;;;;;;;7.75;1.95;;;13.30;99.90;;;;;;5020111;28;20083;-65
2023/01/01 05:30:32;;;;;;;8.50;2.20;;;13.20;99.90;;;;;;5030384;28;20103;-64
2023/01/01 05:32:58;;;;;;;6.47;2.10;;;13.20;99.90;;;;;;5029853;28;20052;-65
2023/01/01 05:35:23;;;;;;;7.90;1.90;;;13.20;99.90;;;;;;5027027;28;20528;-64
2023/01/01 05:37:50;;;;;;;5.30;1.80;;;13.20;99.90;;;;;;5030207;28;20069;-64
2023/01/01 05:40:16;;;;;;;5.97;1.80;;;13.20;99.90;;;;;;5024087;28;20042;-64
2023/01/01 05:42:42;;;;;;;6.10;1.65;;;13.20;99.90;;;;;;5015659;28;20052;-66
2023/01/01 05:45:08;;;;;;;9.07;2.17;;;13.10;99.90;;;;;;5025784;28;20043;-65
2023/01/01 05:47:33;;;;;;;8.68;2.25;;;13.20;99.90;;;;;;5018652;28;20045;-66
2023/01/01 05:49:59;;;;;;;4.47;1.60;;;13.20;99.90;;;;;;5027403;28;20380;-63
2023/01/01 05:52:24;;;;;;;4.68;1.70;;;13.20;99.90;;;;;;5023995;28;20447;-65
2023/01/01 05:54:50;;;;;;;9.45;2.40;;;13.20;99.90;;;;;;5020725;28;20087;-65
2023/01/01 05:57:15;;;;;;;5.03;1.77;;;13.10;99.90;;;;;;5017902;28;20057;-65
2023/01/01 05:59:41;;;;;;;8.43;1.65;;;13.00;99.90;;;;;;5019815;28;20043;-65
2023/01/01 06:02:06;;;;;;;4.38;1.35;;;13.00;99.90;;;;;;5025489;28;20033;-65
2023/01/01 06:04:32;;;;;;;6.93;1.30;;;13.00;99.90;;;;;;5010691;28;20095;-65
2023/01/01 06:06:57;;;;;;;8.90;1.48;;;13.00;99.90;;;;;;5024189;28;20041;-65
2023/01/01 06:09:23;;;;;;;4.80;1.30;;;12.90;99.90;;;;;;5014686;28;20041;-66
2023/01/01 06:11:48;;;;;;;3.75;1.10;;;12.90;99.90;;;;;;5021926;28;20037;-65
2023/01/01 06:14:14;;;;;;;6.38;1.48;;;12.90;99.90;;;;;;5024366;28;23122;-64
2023/01/01 06:16:40;;;;;;;5.55;1.35;;;12.80;99.90;;;;;;5019982;28;20457;-65
2023/01/01 06:19:05;;;;;;;4.80;1.30;;;12.80;99.90;;;;;;5018821;28;21129;-65
2023/01/01 06:21:31;;;;;;;4.68;1.20;;;12.80;99.90;;;;;;5022391;28;20033;-65
2023/01/01 06:23:58;;;;;;;6.53;1.50;;;12.80;99.90;;;;;;5021705;28;20069;-63
2023/01/01 06:26:29;;;;;;;3.80;1.30;;;12.80;99.90;;;;;;5030520;28;20037;-66
2023/01/01 06:28:56;;;;;;;4.63;1.20;;;12.80;99.90;;;;;;5017939;28;20038;-65
2023/01/01 06:31:23;;;;;;;4.18;1.40;;;12.70;99.90;;;;;;5020351;28;20037;-63
2023/01/01 06:33:52;;;;;;;6.78;1.30;;;12.70;99.90;;;;;;5025778;28;20387;-67
2023/01/01 06:36:21;;;;;;;2.97;1.08;;;12.70;99.90;;;;;;5023893;28;20036;-65
2023/01/01 06:38:48;;;;;;;4.80;1.20;;;12.70;99.90;;;;;;5021781;28;20390;-64
2023/01/01 06:41:16;;;;;;;4.43;1.42;;;12.70;99.90;;;;;;5016922;28;20045;-66
2023/01/01 06:43:42;;;;;;;4.00;1.30;;;12.70;99.90;;;;;;5022401;28;20440;-66
2023/01/01 06:46:23;;;;;;;2.53;1.10;;;12.50;99.90;;;;;;5012298;28;20044;-63
2023/01/01 06:48:49;;;;;;;;;;;12.50;99.90;;;;;;5024084;28;20083;-63
2023/01/01 06:51:18;;;;;;;6.43;1.35;;;12.50;99.90;;;;;;5015060;28;19921;-64
2023/01/01 06:53:44;;;;;;;7.65;1.50;;;12.50;99.90;;;;;;5021889;28;22484;-66
2023/01/01 06:56:10;;;;;;;5.47;1.77;;;12.50;99.90;;;;;;5027064;28;20060;-62
2023/01/01 06:58:36;;;;;;;5.28;1.50;;;12.40;99.90;;;;;;5021960;28;20651;-66
2023/01/01 07:01:12;;;;;;;8.27;1.88;;;12.50;99.90;;;;;;5021247;28;20042;-65
2023/01/01 07:03:39;;;;;;;3.53;1.08;;;12.40;99.90;;;;;;5024228;28;20640;-65
2023/01/01 07:06:06;;;;;;;7.57;1.38;;;12.30;99.90;;;;;;5025752;28;20120;-66
2023/01/01 07:08:32;;;;;;;4.80;1.00;;;12.40;99.90;;;;;;5018665;28;20041;-64
2023/01/01 07:10:57;;;;;;;3.75;1.45;;;12.40;99.90;;;;;;5023851;28;20046;-65
2023/01/01 07:13:24;;;;;;;6.57;1.40;;;12.40;99.90;;;;;;5019707;28;20048;-66
2023/01/01 07:15:50;;;;;;;5.07;1.50;;;12.40;99.90;;;;;;5038468;28;20386;-64
2023/01/01 07:18:17;;;;;;;4.47;1.30;;;12.30;99.90;;;;;;5014976;28;20046;-64
2023/01/01 07:20:42;;;;;;;5.78;1.88;;;12.40;99.90;;;;;;5024651;28;20393;-65
2023/01/01 07:23:10;;;;;;;6.78;1.65;;;12.40;99.90;;;;;;5024779;28;20038;-66
2023/01/01 07:25:35;;;;;;;4.07;0.93;;;12.30;99.90;;;;;;5022403;28;20524;-65
2023/01/01 07:28:01;;;;;;;7.90;1.90;;;12.20;99.90;;;;;;5027358;28;20081;-65
2023/01/01 07:30:27;;;;;;;6.38;1.60;;;12.20;99.90;;;;;;5010954;28;20045;-65
2023/01/01 07:32:55;;;;;;;6.93;1.48;;;12.20;99.90;;;;;;5025949;28;20075;-65
2023/01/01 07:35:21;;;;;;;7.90;1.45;;;12.10;99.90;;;;;;5018329;28;20073;-65
2023/01/01 07:37:47;;;;;;;6.55;1.50;;;12.20;99.90;;;;;;5021859;28;20100;-65
2023/01/01 07:40:12;;;;;;;7.43;1.77;;;12.20;99.90;;;;;;5014740;28;20099;-65
2023/01/01 07:42:38;;;;;;;9.18;1.90;;;12.20;99.90;;;;;;5027947;28;20067;-65
2023/01/01 07:45:04;;;;;;;6.18;1.67;;;12.20;99.90;;;;;;5021211;28;20485;-65
2023/01/01 07:47:29;;;;;;;10.05;2.08;;;12.20;99.90;;;;;;5016667;28;20041;-63
2023/01/01 07:49:55;;;;;;;6.13;1.55;;;12.20;99.90;;;;;;5022490;28;20552;-66
2023/01/01 07:52:20;;;;;;;4.50;1.70;;;12.10;99.90;;;;;;5021439;28;20049;-64
2023/01/01 07:54:46;;;;;;;6.38;1.30;;;12.20;99.90;;;;;;5023686;28;20481;-65
2023/01/01 07:57:11;;;;;;;12.25;1.90;;;12.10;99.90;;;;;;5022940;28;20478;-65
2023/01/01 07:59:37;;;;;;;8.73;1.50;;;12.00;99.90;;;;;;5015222;28;20065;-65
2023/01/01 08:02:03;;;;;;;12.45;1.95;;;12.10;99.90;;;;;;5017054;28;20423;-64
2023/01/01 08:04:29;;;;;;;9.85;1.88;;;12.10;99.90;;;;;;5022286;28;20034;-66
2023/01/01 08:06:55;;;;;;;7.07;2.25;;;12.10;99.90;;;;;;5023415;28;20045;-67
2023/01/01 08:09:20;;;;;;;12.98;1.85;;;12.10;99.90;;;;;;5017801;28;20386;-65
2023/01/01 08:11:46;;;;;;;8.18;1.55;;;12.00;99.90;;;;;;5020241;28;20551;-66
2023/01/01 08:14:11;;;;;;;9.52;1.90;;;12.00;99.90;;;;;;5024107;28;20069;-66
2023/01/01 08:16:37;;;;;;;11.25;1.83;;;12.00;99.90;;;;;;5023982;28;20037;-67
2023/01/01 08:19:03;;;;;;;6.78;1.75;;;11.90;99.90;;;;;;5030658;28;20558;-65
2023/01/01 08:21:28;;;;;;;7.45;1.60;;;11.90;99.90;;;;;;5014017;28;20117;-66
2023/01/01 08:23:54;;;;;;;8.18;1.80;;;11.90;99.90;;;;;;5021253;28;20069;-64
2023/01/01 08:26:29;;;;;;;6.80;2.00;;;11.90;99.90;;;;;;5027462;28;20381;-66
2023/01/01 08:28:54;;;;;;;9.50;2.20;;;11.80;99.90;;;;;;5023810;28;20045;-64
2023/01/01 08:31:20;;;;;;;8.75;1.70;;;11.80;99.90;;;;;;5020131;28;20026;-64
2023/01/01 08:33:45;;;;;;;14.18;2.33;;;11.90;99.90;;;;;;5022953;28;20520;-64
2023/01/01 08:36:13;;;;;;;5.78;1.63;;;11.90;99.90;;;;;;5020236;28;20377;-64
2023/01/01 08:38:39;;;;;;;8.38;1.70;;;11.90;99.90;;;;;;5021086;28;20111;-66
2023/01/01 08:41:04;;;;;;;6.65;1.63;;;11.90;99.90;;;;;;5023115;28;20477;-66
2023/01/01 08:43:30;;;;;;;4.80;1.40;;;11.90;99.90;;;;;;5019461;28;20400;-65
2023/01/01 08:45:55;;;;;;;7.05;1.38;;;11.80;99.90;;;;;;5018186;28;20389;-65
2023/01/01 08:48:21;;;;;;;8.30;1.85;;;11.80;99.90;;;;;;5021199;28;21397;-64
2023/01/01 08:50:53;;;;;;;9.95;1.65;;;11.80;99.90;;;;;;5021057;28;20646;-67
2023/01/01 08:53:19;;;;;;;10.73;2.03;;;11.80;99.90;;;;;;5020316;28;20045;-67
2023/01/01 08:55:53;;;;;;;12.10;2.50;;;11.80;99.90;;;;;;5018242;28;20060;-65
2023/01/01 08:58:19;;;;;;;5.63;1.60;;;11.80;99.90;;;;;;5016702;28;20054;-64
2023/01/01 09:00:44;;;;;;;7.97;1.48;;;11.80;99.90;;;;;;5023708;28;20041;-67
2023/01/01 09:03:10;;;;;;;10.88;1.85;;;11.80;99.90;;;;;;5033620;28;20076;-65
2023/01/01 09:05:35;;;;;;;10.07;1.85;;;11.80;99.90;;;;;;5030348;28;20049;-66
2023/01/01 09:08:01;;;;;;;12.73;2.00;;;11.80;99.90;;;;;;5027310;28;20098;-64
2023/01/01 09:10:26;;;;;;;9.15;1.55;;;11.80;99.90;;;;;;5029044;28;20480;-66
2023/01/01 09:12:52;;;;;;;5.38;1.40;;;11.70;99.90;;;;;;5029322;28;20103;-66
2023/01/01 09:15:17;;;;;;;6.40;1.52;;;11.80;99.90;;;;;;5030699;28;20718;-66
2023/01/01 09:17:43;;;;;;;11.32;2.70;;;11.70;99.90;;;;;;5027033;28;20038;-67
2023/01/01 09:20:09;;;;;;;8.00;1.70;;;11.90;99.90;;;;;;5025608;28;20037;-66
2023/01/01 09:22:34;;;;;;;8.75;1.65;;;11.80;99.90;;;;;;5025037;28;20046;-66
2023/01/01 09:25:00;;;;;;;9.02;2.10;;;11.80;99.90;;;;;;5027506;28;20077;-67
2023/01/01 09:27:25;;;;;;;7.75;1.58;;;11.80;99.90;;;;;;5030194;28;20117;-65
2023/01/01 09:29:51;;;;;;;8.13;1.88;;;11.80;99.90;;;;;;5024967;28;20053;-65
2023/01/01 09:32:17;;;;;;;7.90;1.83;;;11.90;99.90;;;;;;5025653;28;20034;-67
2023/01/01 09:34:43;;;;;;;9.63;1.88;;;11.80;99.90;;;;;;5025581;28;20049;-66
2023/01/01 09:37:08;;;;;;;8.52;1.63;;;11.90;99.90;;;;;;5022303;28;20484;-67
2023/01/01 09:39:34;;;;;;;8.40;1.73;;;11.80;99.90;;;;;;5008309;28;20520;-66
2023/01/01 09:42:39;;;;;;;11.75;2.20;;;11.90;99.90;;;;;;5026275;28;20037;-65
2023/01/01 09:45:16;;;;;;;7.28;1.63;;;11.90;99.90;;;;;;5022503;28;20394;-66
2023/01/01 09:47:45;;;;;;;8.05;1.58;;;11.80;99.90;;;;;;5025040;28;20050;-64
2023/01/01 09:50:17;;;;;;;13.83;1.93;;;11.80;99.90;;;;;;5024324;28;20132;-66
2023/01/01 09:52:57;;;;;;;9.73;1.85;;;11.80;99.90;;;;;;5015270;28;20041;-66
2023/01/01 09:55:33;;;;;;;11.60;1.75;;;11.80;99.90;;;;;;5024799;28;20568;-65
2023/01/01 09:57:59;;;;;;;13.50;1.83;;;11.80;99.90;;;;;;5038496;28;20045;-66
2023/01/01 10:00:25;;;;;;;9.82;1.85;;;11.80;99.90;;;;;;5022914;28;20037;-65
2023/01/01 10:03:12;;;;;;;8.73;1.88;;;11.80;99.90;;;;;;5021493;28;20068;-65
2023/01/01 10:05:56;;;;;;;9.85;1.98;;;11.80;99.90;;;;;;5019957;28;20044;-64
2023/01/01 10:08:48;;;;;;;7.50;1.58;;;11.80;99.90;;;;;;5022359;28;20140;-66
2023/01/01 10:11:30;;;;;;;12.57;1.98;;;11.80;99.90;;;;;;5031167;28;20045;-66
2023/01/01 10:13:58;;;;;;;12.52;1.80;;;11.80;99.90;;;;;;5026898;28;20124;-66
2023/01/01 10:16:30;;;;;;;8.63;2.17;;;11.70;99.90;;;;;;5026029;28;20055;-65
2023/01/01 10:19:00;;;;;;;8.02;1.75;;;11.70;99.90;;;;;;5028755;28;20063;-66
2023/01/01 10:21:29;;;;;;;;;;;11.70;99.90;;;;;;5030804;28;20045;-66
2023/01/01 10:23:59;;;;;;;7.43;1.70;;;11.60;99.90;;;;;;5029386;28;19917;-64
2023/01/01 10:26:28;;;;;;;12.13;2.08;;;11.60;99.90;;;;;;5013039;28;20030;-65
2023/01/01 10:29:01;;;;;;;9.73;1.73;;;11.60;99.90;;;;;;5028331;28;20041;-65
2023/01/01 10:31:27;;;;;;;11.75;1.63;;;11.60;99.90;;;;;;5029108;28;20432;-66
2023/01/01 10:33:52;;;;;;;10.32;1.77;;;11.70;99.90;;;;;;5025734;28;20042;-65
2023/01/01 10:36:18;;;;;;;8.38;1.60;;;11.70;99.90;;;;;;5024999;28;20029;-66
2023/01/01 10:38:46;;;;;;;12.23;1.67;;;11.70;99.90;;;;;;5023304;28;20060;-65
2023/01/01 10:41:12;;;;;;;8.18;1.60;;;11.80;99.90;;;;;;5027057;28;20099;-67
2023/01/01 10:43:38;;;;;;;6.10;1.63;;;11.90;99.90;;;;;;5029192;28;20048;-65
2023/01/01 10:46:08;;;;;;;12.98;2.15;;;11.90;99.90;;;;;;5030621;28;20444;-64
2023/01/01 10:48:34;;;;;;;12.63;1.60;;;11.90;99.90;;;;;;5024232;28;20077;-64
2023/01/01 10:51:06;;;;;;;9.88;1.85;;;12.00;99.90;;;;;;5025018;28;20048;-66
2023/01/01 10:53:48;;;;;;;10.25;2.10;;;12.00;99.90;;;;;;5040595;28;20143;-65
2023/01/01 10:56:22;;;;;;;10.07;1.90;;;12.00;99.90;;;;;;5051194;28;20072;-64
2023/01/01 10:58:59;;;;;;;6.35;1.17;;;12.10;99.90;;;;;;5035378;28;20052;-66
2023/01/01 11:01:27;;;;;;;10.02;1.75;;;12.10;99.90;;;;;;5034239;28;20049;-65
2023/01/01 11:04:08;;;;;;;8.40;1.65;;;12.10;99.90;;;;;;5028960;28;20041;-65
2023/01/01 11:06:38;;;;;;;11.38;1.70;;;12.20;99.90;;;;;;5029024;28;20069;-65
2023/01/01 11:09:26;;;;;;;10.73;1.70;;;12.20;99.90;;;;;;5029994;28;20041;-66
2023/01/01 11:12:01;;;;;;;8.38;1.95;;;12.20;99.90;;;;;;5026969;28;20392;-66
2023/01/01 11:14:36;;;;;;;14.82;2.33;;;12.20;99.90;;;;;;5027655;28;20056;-64
2023/01/01 11:17:02;;;;;;;8.63;1.60;;;12.20;99.90;;;;;;5034392;28;20049;-67
2023/01/01 11:19:31;;;;;;;8.38;1.80;;;12.20;99.90;;;;;;5047598;28;20041;-64
2023/01/01 11:21:56;;;;;;;9.13;1.77;;;12.20;99.90;;;;;;5032383;28;20033;-66
2023/01/01 11:24:25;;;;;;;9.38;1.17;;;12.20;99.90;;;;;;5031733;28;20037;-66
2023/01/01 11:26:52;;;;;;;9.05;2.25;;;12.20;99.90;;;;;;5029168;28;20042;-65
2023/01/01 11:29:23;;;;;;;11.85;1.92;;;12.10;99.90;;;;;;5023991;28;20033;-66
2023/01/01 11:31:50;;;;;;;11.35;2.22;;;12.10;99.90;;;;;;5028594;28;20033;-68
2023/01/01 11:34:27;;;;;;;11.05;1.90;;;12.10;99.90;;;;;;5028255;28;20046;-65
2023/01/01 11:37:23;;;;;;;9.20;1.75;;;12.10;99.90;;;;;;5023476;28;20038;-65
2023/01/01 11:39:53;;;;;;;11.10;1.85;;;12.10;99.90;;;;;;5030192;28;20030;-66
2023/01/01 11:42:24;;;;;;;9.70;2.08;;;12.20;99.90;;;;;;5022972;28;20041;-65
2023/01/01 11:44:57;;;;;;;8.27;1.75;;;12.20;99.90;;;;;;5028449;28;20037;-67
2023/01/01 11:47:44;;;;;;;6.90;1.52;;;12.20;99.90;;;;;;5032934;28;20481;-66
2023/01/01 11:50:13;;;;;;;9.32;2.38;;;12.30;99.90;;;;;;5037643;28;20091;-65
2023/01/01 11:52:44;;;;;;;9.27;2.17;;;12.30;99.90;;;;;;5050426;28;20473;-66
2023/01/01 11:55:42;;;;;;;8.98;1.77;;;12.30;99.90;;;;;;5038327;28;20052;-65
2023/01/01 11:58:35;;;;;;;14.73;2.45;;;12.30;99.90;;;;;;5029585;28;20457;-67
2023/01/01 12:01:30;;;;;;;11.73;1.80;;;12.30;99.90;;;;;;5032017;28;20034;-69
2023/01/01 12:04:18;;;;;;;10.60;2.08;;;12.30;99.90;;;;;;5034112;28;20038;-66
2023/01/01 12:06:52;;;;;;;12.90;2.17;;;12.30;99.90;;;;;;5033911;28;20034;-66
2023/01/01 12:09:25;;;;;;;11.98;2.40;;;12.30;99.90;;;;;;5030246;28;20037;-65
2023/01/01 12:12:01;;;;;;;11.88;1.90;;;12.40;99.90;;;;;;5048618;28;20052;-64
2023/01/01 12:14:41;;;;;;;10.50;2.08;;;12.50;99.90;;;;;;5030121;28;20428;-66
2023/01/01 12:17:27;;;;;;;9.85;1.80;;;12.50;99.90;;;;;;5034049;28;20045;-66
2023/01/01 12:20:07;;;;;;;8.98;1.92;;;12.50;99.90;;;;;;5037182;28;20048;-64
2023/01/01 12:22:33;;;;;;;10.95;1.98;;;12.50;99.90;;;;;;5037296;28;20120;-67
2023/01/01 12:24:59;;;;;;;9.75;1.90;;;12.40;99.90;;;;;;5033999;28;20140;-65
2023/01/01 12:27:33;;;;;;;8.95;1.73;;;12.40;99.90;;;;;;5031533;28;20619;-63
2023/01/01 12:30:34;;;;;;;11.60;2.20;;;12.40;99.90;;;;;;5027496;28;20037;-66
2023/01/01 12:33:18;;;;;;;;;;;12.30;99.90;;;;;;5032452;28;20111;-63
2023/01/01 12:36:00;;;;;;;9.90;2.45;;;12.30;99.90;;;;;;5032902;28;20014;-67
2023/01/01 12:38:46;;;;;;;11.35;2.30;;;12.30;99.90;;;;;;5031962;28;20159;-66
2023/01/01 12:41:30;;;;;;;11.20;2.03;;;12.30;99.90;;;;;;5028733;28;20072;-63
2023/01/01 12:44:02;;;;;;;9.05;1.95;;;12.30;99.90;;;;;;5015305;28;20056;-64
2023/01/01 12:46:41;;;;;;;8.25;2.05;;;12.30;99.90;;;;;;5028893;28;20044;-66
2023/01/01 12:49:24;;;;;;;11.67;2.00;;;12.20;99.90;;;;;;5031104;28;20056;-64
2023/01/01 12:52:01;;;;;;;14.68;2.00;;;12.20;99.90;;;;;;5032359;28;21075;-66
2023/01/01 12:54:40;;;;;;;10.85;2.45;;;12.20;99.90;;;;;;5023994;28;20085;-65
2023/01/01 12:57:23;;;;;;;11.38;1.92;;;12.10;99.90;;;;;;5033570;28;20056;-66
2023/01/01 12:59:51;;;;;;;10.23;2.03;;;12.10;99.90;;;;;;5032276;28;20053;-64
2023/01/01 13:02:28;;;;;;;7.30;2.42;;;12.10;99.90;;;;;;5023880;28;20603;-65
2023/01/01 13:05:25;;;;;;;14.40;2.25;;;12.10;99.90;;;;;;5031643;28;20107;-67